Prentiss, Mississippi
Current Conditions -  °F | °C
As of 1:35 AM on Sunday 23 Nov 2014 (Local Time) from K1R7 Reporting Station
Overcast Overcast  
Wind Chill: 61°   Ceiling: 600
Heat Index: 61°   Visibility: 10mi
Dew Point: 59°   Wind: 7mph
Humidity: 94%   Direction: 120°ESE
Pressure: 29.87"   Gusts: NA
Location:  31.6°N, 89.87°W
Report Text: K1R7 230735Z AUTO 12006KT 10SM OVC006 16/15 A2987 RMK AO2
Loading
Personal Weather Stations






























Interactive Weather Map New forecast layout! Learn more

10-Day Weather Forecast

Advertisements
Track Severe Weather on mobile